WZZ442V EPKT-EDLW
Flight info
| Callsign | WZZ442V |
|---|---|
| Flight time | 1h 18m |
| Altitude | 36000 |
| Route | ADADO DCT UTEVO DCT ETUDA DCT RAPET T170 RUNEN DCT FULNO/N0428F300 T842 IDEWE/N0388F240 T842 ADEMI ADEMI2A |
| Aircraft | A321/M-SDE1E2E3FGIJ1J4RWXY/LB1 |
Departure
| Time | 2026-04-27 08:09 |
|---|---|
| Airport | Katowice Wojciech Korfanty International Airport (EPKT) |
Arrival
| Time | 2026-04-27 09:27 |
|---|---|
| Airport | Dortmund Airport (EDLW) |
| Time | Latitude | Longitude | Altitude | Speed | Heading |
|---|---|---|---|---|---|
| 2026-04-27 07:50 | 50.47149 | 19.07695 | 999 ft | 0 kts | 180° |
| 2026-04-27 07:54 | 50.47150 | 19.07695 | 998 ft | 0 kts | 180° |
| 2026-04-27 08:00 | 50.47153 | 19.07695 | 998 ft | 3 kts | 180° |
| 2026-04-27 08:00 | 50.47180 | 19.07695 | 1001 ft | 4 kts | 180° |
| 2026-04-27 08:00 | 50.47202 | 19.07696 | 999 ft | 4 kts | 178° |
| 2026-04-27 08:01 | 50.47225 | 19.07687 | 1000 ft | 4 kts | 135° |
| 2026-04-27 08:01 | 50.47234 | 19.07657 | 998 ft | 3 kts | 90° |
| 2026-04-27 08:01 | 50.47234 | 19.07621 | 998 ft | 1 kts | 90° |
| 2026-04-27 08:01 | 50.47234 | 19.07620 | 998 ft | 0 kts | 90° |
| 2026-04-27 08:04 | 50.47234 | 19.07631 | 998 ft | 2 kts | 90° |
| 2026-04-27 08:04 | 50.47234 | 19.07668 | 998 ft | 5 kts | 90° |
| 2026-04-27 08:04 | 50.47234 | 19.07731 | 1003 ft | 7 kts | 90° |
| 2026-04-27 08:04 | 50.47234 | 19.07818 | 1001 ft | 9 kts | 90° |
| 2026-04-27 08:05 | 50.47233 | 19.07928 | 1003 ft | 11 kts | 90° |
| 2026-04-27 08:05 | 50.47233 | 19.08058 | 1004 ft | 13 kts | 90° |
| 2026-04-27 08:05 | 50.47232 | 19.08208 | 1001 ft | 15 kts | 90° |
| 2026-04-27 08:05 | 50.47232 | 19.08375 | 1002 ft | 16 kts | 90° |
| 2026-04-27 08:06 | 50.47231 | 19.08560 | 1004 ft | 18 kts | 90° |
| 2026-04-27 08:06 | 50.47231 | 19.08762 | 998 ft | 19 kts | 90° |
| 2026-04-27 08:06 | 50.47230 | 19.08981 | 1004 ft | 21 kts | 90° |
| 2026-04-27 08:06 | 50.47231 | 19.09216 | 998 ft | 22 kts | 90° |
| 2026-04-27 08:07 | 50.47239 | 19.09363 | 1002 ft | 10 kts | 57° |
| 2026-04-27 08:07 | 50.47306 | 19.09390 | 1001 ft | 11 kts | 1° |
| 2026-04-27 08:07 | 50.47389 | 19.09389 | 999 ft | 13 kts | 359° |
| 2026-04-27 08:07 | 50.47484 | 19.09389 | 999 ft | 14 kts | 1° |
| 2026-04-27 08:08 | 50.47579 | 19.09392 | 1005 ft | 5 kts | 1° |
| 2026-04-27 08:08 | 50.47595 | 19.09355 | 1000 ft | 8 kts | 276° |
| 2026-04-27 08:08 | 50.47598 | 19.08929 | 1000 ft | 77 kts | 270° |
| 2026-04-27 08:08 | 50.47601 | 19.07707 | 1004 ft | 144 kts | 270° |
| 2026-04-27 08:09 | 50.47602 | 19.06045 | 1584 ft | 151 kts | 272° |
| 2026-04-27 08:09 | 50.47609 | 19.04398 | 2526 ft | 152 kts | 273° |
| 2026-04-27 08:09 | 50.47616 | 19.02672 | 3139 ft | 171 kts | 272° |
| 2026-04-27 08:09 | 50.47621 | 19.00688 | 3666 ft | 193 kts | 272° |
| 2026-04-27 08:10 | 50.47623 | 18.98461 | 4090 ft | 216 kts | 270° |
| 2026-04-27 08:10 | 50.47517 | 18.95967 | 4564 ft | 243 kts | 259° |
| 2026-04-27 08:10 | 50.47085 | 18.93342 | 5287 ft | 252 kts | 256° |
| 2026-04-27 08:10 | 50.46615 | 18.90661 | 6195 ft | 256 kts | 256° |
| 2026-04-27 08:11 | 50.46131 | 18.87950 | 7067 ft | 260 kts | 256° |
| 2026-04-27 08:11 | 50.45637 | 18.85199 | 7942 ft | 264 kts | 257° |
| 2026-04-27 08:11 | 50.45135 | 18.82399 | 8816 ft | 269 kts | 257° |
| 2026-04-27 08:11 | 50.44626 | 18.79552 | 9676 ft | 273 kts | 258° |
| 2026-04-27 08:12 | 50.44107 | 18.76644 | 10347 ft | 284 kts | 258° |
| 2026-04-27 08:12 | 50.43559 | 18.73539 | 10603 ft | 308 kts | 258° |
| 2026-04-27 08:12 | 50.42970 | 18.70210 | 11023 ft | 322 kts | 258° |
| 2026-04-27 08:12 | 50.42360 | 18.66799 | 11738 ft | 327 kts | 258° |
| 2026-04-27 08:13 | 50.41740 | 18.63356 | 12514 ft | 330 kts | 258° |
| 2026-04-27 08:13 | 50.41113 | 18.59884 | 13292 ft | 332 kts | 258° |
| 2026-04-27 08:13 | 50.40480 | 18.56380 | 14061 ft | 335 kts | 258° |
| 2026-04-27 08:13 | 50.39845 | 18.52855 | 14734 ft | 338 kts | 258° |
| 2026-04-27 08:14 | 50.39202 | 18.49289 | 15390 ft | 342 kts | 258° |
| 2026-04-27 08:14 | 50.38561 | 18.45739 | 16042 ft | 345 kts | 258° |
| 2026-04-27 08:14 | 50.37903 | 18.42108 | 16702 ft | 348 kts | 258° |
| 2026-04-27 08:14 | 50.37236 | 18.38435 | 17357 ft | 352 kts | 258° |
| 2026-04-27 08:15 | 50.36562 | 18.34728 | 17993 ft | 356 kts | 258° |
| 2026-04-27 08:15 | 50.35879 | 18.30983 | 18635 ft | 360 kts | 258° |
| 2026-04-27 08:15 | 50.35187 | 18.27198 | 19198 ft | 363 kts | 258° |
| 2026-04-27 08:15 | 50.34486 | 18.23377 | 19803 ft | 366 kts | 258° |
| 2026-04-27 08:16 | 50.33780 | 18.19539 | 20417 ft | 368 kts | 258° |
| 2026-04-27 08:16 | 50.33069 | 18.15673 | 21027 ft | 371 kts | 258° |
| 2026-04-27 08:16 | 50.32356 | 18.11787 | 21626 ft | 373 kts | 258° |
| 2026-04-27 08:16 | 50.31635 | 18.07865 | 22227 ft | 376 kts | 258° |
| 2026-04-27 08:17 | 50.30907 | 18.03924 | 22809 ft | 379 kts | 258° |
| 2026-04-27 08:17 | 50.30171 | 17.99954 | 23386 ft | 381 kts | 258° |
| 2026-04-27 08:17 | 50.29426 | 17.95955 | 23926 ft | 384 kts | 258° |
| 2026-04-27 08:17 | 50.28676 | 17.91936 | 24392 ft | 387 kts | 258° |
| 2026-04-27 08:18 | 50.27919 | 17.87892 | 24843 ft | 389 kts | 258° |
| 2026-04-27 08:18 | 50.27153 | 17.83813 | 25285 ft | 392 kts | 258° |
| 2026-04-27 08:18 | 50.26383 | 17.79712 | 25723 ft | 395 kts | 258° |
| 2026-04-27 08:18 | 50.25609 | 17.75586 | 26154 ft | 397 kts | 258° |
| 2026-04-27 08:19 | 50.24830 | 17.71424 | 26580 ft | 400 kts | 258° |
| 2026-04-27 08:19 | 50.24045 | 17.67243 | 26985 ft | 402 kts | 258° |
| 2026-04-27 08:19 | 50.23251 | 17.63035 | 27410 ft | 405 kts | 258° |
| 2026-04-27 08:19 | 50.22451 | 17.58808 | 27816 ft | 408 kts | 258° |
| 2026-04-27 08:20 | 50.21641 | 17.54547 | 28227 ft | 411 kts | 258° |
| 2026-04-27 08:20 | 50.20826 | 17.50268 | 28621 ft | 413 kts | 258° |
| 2026-04-27 08:20 | 50.20003 | 17.45954 | 29013 ft | 416 kts | 258° |
| 2026-04-27 08:20 | 50.19172 | 17.41605 | 29396 ft | 419 kts | 258° |
| 2026-04-27 08:21 | 50.18334 | 17.37242 | 29782 ft | 422 kts | 258° |
| 2026-04-27 08:21 | 50.17485 | 17.32849 | 30155 ft | 424 kts | 258° |
| 2026-04-27 08:21 | 50.16631 | 17.28428 | 30469 ft | 427 kts | 258° |
| 2026-04-27 08:21 | 50.15773 | 17.23988 | 30786 ft | 429 kts | 258° |
| 2026-04-27 08:22 | 50.14909 | 17.19520 | 31104 ft | 432 kts | 258° |
| 2026-04-27 08:22 | 50.14036 | 17.15026 | 31419 ft | 434 kts | 258° |
| 2026-04-27 08:22 | 50.13158 | 17.10510 | 31759 ft | 435 kts | 258° |
| 2026-04-27 08:22 | 50.12281 | 17.06000 | 32209 ft | 434 kts | 258° |
| 2026-04-27 08:23 | 50.11417 | 17.01570 | 32633 ft | 433 kts | 258° |
| 2026-04-27 08:23 | 50.10540 | 16.97088 | 33062 ft | 432 kts | 258° |
| 2026-04-27 08:23 | 50.09662 | 16.92621 | 33498 ft | 431 kts | 258° |
| 2026-04-27 08:23 | 50.08779 | 16.88154 | 33920 ft | 430 kts | 258° |
| 2026-04-27 08:24 | 50.07900 | 16.83711 | 34334 ft | 430 kts | 258° |
| 2026-04-27 08:24 | 50.07020 | 16.79270 | 34688 ft | 429 kts | 258° |
| 2026-04-27 08:24 | 50.06139 | 16.74835 | 35010 ft | 429 kts | 258° |
| 2026-04-27 08:24 | 50.05259 | 16.70402 | 35338 ft | 429 kts | 258° |
| 2026-04-27 08:25 | 50.04377 | 16.65971 | 35651 ft | 429 kts | 258° |
| 2026-04-27 08:25 | 50.03492 | 16.61536 | 35970 ft | 429 kts | 257° |
| 2026-04-27 08:25 | 50.02608 | 16.57110 | 36223 ft | 430 kts | 257° |
| 2026-04-27 08:25 | 50.01879 | 16.52641 | 36284 ft | 422 kts | 265° |
| 2026-04-27 08:26 | 50.01756 | 16.43692 | 36277 ft | 411 kts | 279° |
| 2026-04-27 08:26 | 50.02293 | 16.34840 | 36276 ft | 411 kts | 279° |
| 2026-04-27 08:27 | 50.02814 | 16.25989 | 36281 ft | 411 kts | 279° |
| 2026-04-27 08:27 | 50.03323 | 16.17148 | 36286 ft | 411 kts | 279° |
| 2026-04-27 08:28 | 50.03828 | 16.08285 | 36292 ft | 411 kts | 279° |
| 2026-04-27 08:28 | 50.04332 | 15.99425 | 36302 ft | 411 kts | 279° |
| 2026-04-27 08:29 | 50.04831 | 15.90570 | 36305 ft | 411 kts | 279° |
| 2026-04-27 08:29 | 50.05314 | 15.81708 | 36309 ft | 411 kts | 278° |
| 2026-04-27 08:30 | 50.05784 | 15.72909 | 36310 ft | 411 kts | 278° |
| 2026-04-27 08:30 | 50.06256 | 15.64055 | 36313 ft | 411 kts | 278° |
| 2026-04-27 08:31 | 50.06729 | 15.55194 | 36308 ft | 410 kts | 278° |
| 2026-04-27 08:31 | 50.07191 | 15.46343 | 36306 ft | 410 kts | 278° |
| 2026-04-27 08:32 | 50.07648 | 15.37501 | 36303 ft | 410 kts | 278° |
| 2026-04-27 08:32 | 50.08088 | 15.28645 | 36299 ft | 410 kts | 278° |
| 2026-04-27 08:33 | 50.08519 | 15.19788 | 36296 ft | 410 kts | 278° |
| 2026-04-27 08:33 | 50.08954 | 15.10927 | 36297 ft | 410 kts | 278° |
| 2026-04-27 08:34 | 50.09382 | 15.02071 | 36300 ft | 410 kts | 278° |
| 2026-04-27 08:34 | 50.09806 | 14.93207 | 36303 ft | 410 kts | 278° |
| 2026-04-27 08:35 | 50.10214 | 14.84352 | 36311 ft | 410 kts | 278° |
| 2026-04-27 08:35 | 50.10613 | 14.75492 | 36313 ft | 410 kts | 278° |
| 2026-04-27 08:36 | 50.11010 | 14.66637 | 36316 ft | 410 kts | 278° |
| 2026-04-27 08:36 | 50.11407 | 14.57788 | 36318 ft | 410 kts | 278° |
| 2026-04-27 08:37 | 50.11790 | 14.48935 | 36317 ft | 410 kts | 278° |
| 2026-04-27 08:37 | 50.12169 | 14.40079 | 36319 ft | 410 kts | 278° |
| 2026-04-27 08:38 | 50.12543 | 14.31224 | 36318 ft | 409 kts | 278° |
| 2026-04-27 08:38 | 50.12908 | 14.22373 | 36318 ft | 409 kts | 278° |
| 2026-04-27 08:39 | 50.13265 | 14.13517 | 36321 ft | 409 kts | 278° |
| 2026-04-27 08:39 | 50.13610 | 14.04674 | 36317 ft | 409 kts | 277° |
| 2026-04-27 08:40 | 50.13948 | 13.95895 | 36307 ft | 408 kts | 277° |
| 2026-04-27 08:40 | 50.14283 | 13.87064 | 36306 ft | 408 kts | 277° |
| 2026-04-27 08:41 | 50.14618 | 13.78244 | 36301 ft | 408 kts | 277° |
| 2026-04-27 08:41 | 50.14941 | 13.69429 | 36300 ft | 407 kts | 277° |
| 2026-04-27 08:42 | 50.15254 | 13.60613 | 36287 ft | 407 kts | 277° |
| 2026-04-27 08:42 | 50.15563 | 13.51789 | 36297 ft | 407 kts | 277° |
| 2026-04-27 08:43 | 50.15870 | 13.42982 | 36294 ft | 407 kts | 277° |
| 2026-04-27 08:43 | 50.16165 | 13.34185 | 36289 ft | 406 kts | 277° |
| 2026-04-27 08:44 | 50.16401 | 13.26874 | 36290 ft | 406 kts | 277° |
| 2026-04-27 08:44 | 50.16689 | 13.18066 | 36289 ft | 406 kts | 277° |
| 2026-04-27 08:45 | 50.16959 | 13.09263 | 36289 ft | 406 kts | 276° |
| 2026-04-27 08:45 | 50.17227 | 13.00458 | 36287 ft | 406 kts | 276° |
| 2026-04-27 08:46 | 50.17487 | 12.91665 | 36287 ft | 406 kts | 276° |
| 2026-04-27 08:46 | 50.17748 | 12.82869 | 36287 ft | 406 kts | 276° |
| 2026-04-27 08:47 | 50.17999 | 12.74073 | 36284 ft | 406 kts | 276° |
| 2026-04-27 08:47 | 50.18237 | 12.65273 | 36282 ft | 406 kts | 276° |
| 2026-04-27 08:48 | 50.18478 | 12.56479 | 36280 ft | 406 kts | 276° |
| 2026-04-27 08:48 | 50.18709 | 12.47681 | 36278 ft | 406 kts | 276° |
| 2026-04-27 08:49 | 50.18929 | 12.38880 | 36271 ft | 406 kts | 276° |
| 2026-04-27 08:49 | 50.19858 | 12.30303 | 36272 ft | 400 kts | 292° |
| 2026-04-27 08:50 | 50.21758 | 12.22146 | 36279 ft | 400 kts | 291° |
| 2026-04-27 08:50 | 50.23640 | 12.13976 | 36280 ft | 400 kts | 291° |
| 2026-04-27 08:51 | 50.25506 | 12.05782 | 36285 ft | 400 kts | 291° |
| 2026-04-27 08:51 | 50.27378 | 11.97586 | 36287 ft | 400 kts | 291° |
| 2026-04-27 08:52 | 50.29260 | 11.89396 | 36286 ft | 400 kts | 291° |
| 2026-04-27 08:52 | 50.31135 | 11.81207 | 36286 ft | 400 kts | 291° |
| 2026-04-27 08:53 | 50.33000 | 11.73006 | 36284 ft | 400 kts | 291° |
| 2026-04-27 08:53 | 50.34862 | 11.64805 | 36283 ft | 400 kts | 291° |
| 2026-04-27 08:54 | 50.36722 | 11.56589 | 36284 ft | 400 kts | 291° |
| 2026-04-27 08:54 | 50.38569 | 11.48364 | 36282 ft | 400 kts | 291° |
| 2026-04-27 08:55 | 50.40412 | 11.40131 | 36284 ft | 400 kts | 291° |
| 2026-04-27 08:55 | 50.42255 | 11.31888 | 36284 ft | 400 kts | 291° |
| 2026-04-27 08:56 | 50.44450 | 11.23902 | 36281 ft | 399 kts | 298° |
| 2026-04-27 08:56 | 50.46994 | 11.16161 | 36281 ft | 399 kts | 297° |
| 2026-04-27 08:57 | 50.50425 | 11.04231 | 36278 ft | 400 kts | 294° |
| 2026-04-27 08:58 | 50.52621 | 10.96201 | 36288 ft | 400 kts | 294° |
| 2026-04-27 08:58 | 50.54849 | 10.88201 | 36286 ft | 400 kts | 295° |
| 2026-04-27 08:59 | 50.57104 | 10.80209 | 36285 ft | 400 kts | 295° |
| 2026-04-27 08:59 | 50.59346 | 10.72203 | 36287 ft | 400 kts | 294° |
| 2026-04-27 09:00 | 50.61581 | 10.64187 | 36287 ft | 400 kts | 294° |
| 2026-04-27 09:00 | 50.63809 | 10.56165 | 36287 ft | 400 kts | 294° |
| 2026-04-27 09:01 | 50.66034 | 10.48141 | 36289 ft | 400 kts | 294° |
| 2026-04-27 09:01 | 50.68256 | 10.40111 | 36288 ft | 399 kts | 294° |
| 2026-04-27 09:02 | 50.70451 | 10.32123 | 36140 ft | 400 kts | 294° |
| 2026-04-27 09:02 | 50.71552 | 10.28108 | 35890 ft | 399 kts | 294° |
| 2026-04-27 09:02 | 50.72650 | 10.24094 | 35633 ft | 399 kts | 294° |
| 2026-04-27 09:02 | 50.73748 | 10.20070 | 35175 ft | 400 kts | 294° |
| 2026-04-27 09:03 | 50.74849 | 10.16028 | 34639 ft | 399 kts | 294° |
| 2026-04-27 09:03 | 50.75937 | 10.12023 | 34215 ft | 396 kts | 294° |
| 2026-04-27 09:03 | 50.77017 | 10.08047 | 33743 ft | 392 kts | 294° |
| 2026-04-27 09:03 | 50.78084 | 10.04108 | 33304 ft | 387 kts | 294° |
| 2026-04-27 09:04 | 50.79135 | 10.00218 | 32870 ft | 383 kts | 294° |
| 2026-04-27 09:04 | 50.80178 | 9.96365 | 32450 ft | 379 kts | 293° |
| 2026-04-27 09:04 | 50.81211 | 9.92547 | 32019 ft | 375 kts | 293° |
| 2026-04-27 09:04 | 50.82231 | 9.88776 | 31587 ft | 372 kts | 293° |
| 2026-04-27 09:05 | 50.83242 | 9.85032 | 31167 ft | 368 kts | 293° |
| 2026-04-27 09:05 | 50.84241 | 9.81323 | 30757 ft | 365 kts | 293° |
| 2026-04-27 09:05 | 50.85229 | 9.77640 | 30339 ft | 363 kts | 293° |
| 2026-04-27 09:05 | 50.86209 | 9.73973 | 29895 ft | 360 kts | 293° |
| 2026-04-27 09:06 | 50.87180 | 9.70343 | 29492 ft | 356 kts | 293° |
| 2026-04-27 09:06 | 50.88141 | 9.66746 | 29099 ft | 353 kts | 292° |
| 2026-04-27 09:06 | 50.89090 | 9.63183 | 28718 ft | 350 kts | 292° |
| 2026-04-27 09:06 | 50.90032 | 9.59641 | 28334 ft | 348 kts | 292° |
| 2026-04-27 09:07 | 50.90964 | 9.56127 | 27968 ft | 345 kts | 292° |
| 2026-04-27 09:07 | 50.91889 | 9.52636 | 27600 ft | 342 kts | 292° |
| 2026-04-27 09:07 | 50.92803 | 9.49183 | 27245 ft | 338 kts | 292° |
| 2026-04-27 09:07 | 50.93705 | 9.45774 | 26894 ft | 334 kts | 292° |
| 2026-04-27 09:08 | 50.94600 | 9.42388 | 26552 ft | 331 kts | 292° |
| 2026-04-27 09:08 | 50.95474 | 9.39080 | 26209 ft | 329 kts | 292° |
| 2026-04-27 09:08 | 50.96356 | 9.35738 | 25878 ft | 328 kts | 292° |
| 2026-04-27 09:08 | 50.97232 | 9.32407 | 25529 ft | 326 kts | 292° |
| 2026-04-27 09:09 | 50.98101 | 9.29094 | 25178 ft | 325 kts | 292° |
| 2026-04-27 09:09 | 50.98968 | 9.25788 | 24831 ft | 324 kts | 292° |
| 2026-04-27 09:09 | 50.99830 | 9.22493 | 24483 ft | 323 kts | 292° |
| 2026-04-27 09:09 | 51.00692 | 9.19207 | 24136 ft | 322 kts | 292° |
| 2026-04-27 09:10 | 51.01550 | 9.15936 | 23742 ft | 321 kts | 292° |
| 2026-04-27 09:10 | 51.02402 | 9.12673 | 23353 ft | 319 kts | 291° |
| 2026-04-27 09:10 | 51.03246 | 9.09429 | 22978 ft | 317 kts | 291° |
| 2026-04-27 09:10 | 51.04088 | 9.06197 | 22609 ft | 316 kts | 291° |
| 2026-04-27 09:11 | 51.04925 | 9.02977 | 22237 ft | 315 kts | 291° |
| 2026-04-27 09:11 | 51.05753 | 8.99774 | 21867 ft | 313 kts | 291° |
| 2026-04-27 09:11 | 51.06579 | 8.96579 | 21498 ft | 312 kts | 291° |
| 2026-04-27 09:11 | 51.07402 | 8.93399 | 21121 ft | 310 kts | 291° |
| 2026-04-27 09:12 | 51.08220 | 8.90236 | 20745 ft | 309 kts | 291° |
| 2026-04-27 09:12 | 51.09033 | 8.87085 | 20365 ft | 308 kts | 291° |
| 2026-04-27 09:12 | 51.09844 | 8.83938 | 19996 ft | 306 kts | 291° |
| 2026-04-27 09:12 | 51.10651 | 8.80803 | 19621 ft | 305 kts | 291° |
| 2026-04-27 09:13 | 51.11454 | 8.77680 | 19251 ft | 305 kts | 291° |
| 2026-04-27 09:13 | 51.12253 | 8.74560 | 18885 ft | 304 kts | 291° |
| 2026-04-27 09:13 | 51.13048 | 8.71450 | 18503 ft | 303 kts | 291° |
| 2026-04-27 09:13 | 51.13842 | 8.68343 | 18098 ft | 303 kts | 291° |
| 2026-04-27 09:14 | 51.14634 | 8.65242 | 17729 ft | 302 kts | 291° |
| 2026-04-27 09:14 | 51.15425 | 8.62150 | 17356 ft | 301 kts | 291° |
| 2026-04-27 09:14 | 51.16212 | 8.59065 | 16987 ft | 299 kts | 291° |
| 2026-04-27 09:14 | 51.16989 | 8.56005 | 16618 ft | 297 kts | 291° |
| 2026-04-27 09:15 | 51.17759 | 8.52963 | 16255 ft | 295 kts | 291° |
| 2026-04-27 09:15 | 51.18525 | 8.49935 | 15896 ft | 295 kts | 291° |
| 2026-04-27 09:15 | 51.19291 | 8.46913 | 15540 ft | 293 kts | 291° |
| 2026-04-27 09:15 | 51.20055 | 8.43898 | 15163 ft | 293 kts | 291° |
| 2026-04-27 09:16 | 51.20814 | 8.40892 | 14811 ft | 291 kts | 292° |
| 2026-04-27 09:16 | 51.21569 | 8.37907 | 14446 ft | 290 kts | 292° |
| 2026-04-27 09:16 | 51.22325 | 8.34916 | 14077 ft | 291 kts | 292° |
| 2026-04-27 09:16 | 51.23077 | 8.31930 | 13707 ft | 290 kts | 292° |
| 2026-04-27 09:17 | 51.23826 | 8.28949 | 13339 ft | 288 kts | 292° |
| 2026-04-27 09:17 | 51.24568 | 8.25986 | 12988 ft | 286 kts | 292° |
| 2026-04-27 09:17 | 51.25295 | 8.23079 | 12642 ft | 285 kts | 292° |
| 2026-04-27 09:17 | 51.26029 | 8.20140 | 12289 ft | 285 kts | 292° |
| 2026-04-27 09:18 | 51.26773 | 8.17160 | 11931 ft | 285 kts | 292° |
| 2026-04-27 09:18 | 51.27502 | 8.14241 | 11588 ft | 282 kts | 292° |
| 2026-04-27 09:18 | 51.28234 | 8.11306 | 11036 ft | 290 kts | 291° |
| 2026-04-27 09:18 | 51.28985 | 8.08296 | 10598 ft | 291 kts | 292° |
| 2026-04-27 09:19 | 51.29733 | 8.05292 | 10232 ft | 291 kts | 291° |
| 2026-04-27 09:19 | 51.30464 | 8.02351 | 9923 ft | 287 kts | 292° |
| 2026-04-27 09:19 | 51.31189 | 7.99434 | 9748 ft | 282 kts | 291° |
| 2026-04-27 09:19 | 51.31911 | 7.96518 | 9341 ft | 284 kts | 292° |
| 2026-04-27 09:20 | 51.32638 | 7.93573 | 8942 ft | 283 kts | 292° |
| 2026-04-27 09:20 | 51.33361 | 7.90638 | 8487 ft | 287 kts | 292° |
| 2026-04-27 09:20 | 51.34087 | 7.87692 | 8276 ft | 283 kts | 291° |
| 2026-04-27 09:20 | 51.34805 | 7.84778 | 8022 ft | 280 kts | 292° |
| 2026-04-27 09:21 | 51.35516 | 7.81879 | 7635 ft | 279 kts | 292° |
| 2026-04-27 09:21 | 51.36224 | 7.78997 | 7243 ft | 278 kts | 292° |
| 2026-04-27 09:21 | 51.36930 | 7.76123 | 6780 ft | 277 kts | 292° |
| 2026-04-27 09:21 | 51.37635 | 7.73257 | 6396 ft | 277 kts | 292° |
| 2026-04-27 09:22 | 51.38337 | 7.70401 | 5979 ft | 274 kts | 292° |
| 2026-04-27 09:22 | 51.39033 | 7.67561 | 5480 ft | 274 kts | 292° |
| 2026-04-27 09:22 | 51.39724 | 7.64724 | 4927 ft | 273 kts | 291° |
| 2026-04-27 09:22 | 51.40415 | 7.61880 | 4263 ft | 277 kts | 291° |
| 2026-04-27 09:23 | 51.41102 | 7.59028 | 3641 ft | 269 kts | 291° |
| 2026-04-27 09:23 | 51.41747 | 7.56348 | 3428 ft | 247 kts | 291° |
| 2026-04-27 09:23 | 51.42345 | 7.53870 | 3340 ft | 230 kts | 291° |
| 2026-04-27 09:23 | 51.42906 | 7.51550 | 3210 ft | 217 kts | 292° |
| 2026-04-27 09:24 | 51.43638 | 7.49594 | 3133 ft | 194 kts | 314° |
| 2026-04-27 09:24 | 51.44644 | 7.48358 | 3017 ft | 175 kts | 334° |
| 2026-04-27 09:24 | 51.45801 | 7.47846 | 2635 ft | 174 kts | 2° |
| 2026-04-27 09:24 | 51.46937 | 7.48339 | 2328 ft | 168 kts | 33° |
| 2026-04-27 09:25 | 51.47745 | 7.49643 | 2058 ft | 165 kts | 60° |
| 2026-04-27 09:25 | 51.48305 | 7.51224 | 1819 ft | 160 kts | 61° |
| 2026-04-27 09:25 | 51.48848 | 7.52760 | 1596 ft | 158 kts | 61° |
| 2026-04-27 09:25 | 51.49371 | 7.54238 | 1396 ft | 145 kts | 62° |
| 2026-04-27 09:26 | 51.49855 | 7.55610 | 1176 ft | 138 kts | 60° |
| 2026-04-27 09:26 | 51.50323 | 7.56937 | 1000 ft | 137 kts | 59° |
| 2026-04-27 09:26 | 51.50787 | 7.58260 | 768 ft | 135 kts | 60° |
| 2026-04-27 09:26 | 51.51251 | 7.59573 | 568 ft | 135 kts | 58° |
| 2026-04-27 09:27 | 51.51707 | 7.60875 | 421 ft | 127 kts | 58° |
| 2026-04-27 09:27 | 51.52050 | 7.61836 | 411 ft | 59 kts | 60° |
| 2026-04-27 09:27 | 51.52171 | 7.62176 | 413 ft | 26 kts | 62° |
| 2026-04-27 09:27 | 51.52187 | 7.62295 | 410 ft | 8 kts | 114° |
| 2026-04-27 09:28 | 51.52138 | 7.62357 | 415 ft | 10 kts | 149° |
| 2026-04-27 09:28 | 51.52058 | 7.62382 | 416 ft | 14 kts | 206° |
| 2026-04-27 09:28 | 51.52003 | 7.62250 | 412 ft | 15 kts | 241° |
| 2026-04-27 09:28 | 51.51952 | 7.62105 | 412 ft | 16 kts | 240° |
| 2026-04-27 09:29 | 51.51894 | 7.61942 | 410 ft | 17 kts | 238° |
| 2026-04-27 09:29 | 51.51834 | 7.61774 | 414 ft | 18 kts | 241° |
| 2026-04-27 09:29 | 51.51774 | 7.61602 | 427 ft | 16 kts | 242° |
| 2026-04-27 09:29 | 51.51737 | 7.61497 | 422 ft | 17 kts | 240° |
| 2026-04-27 09:30 | 51.51676 | 7.61321 | 427 ft | 19 kts | 243° |
| 2026-04-27 09:30 | 51.51607 | 7.61122 | 423 ft | 19 kts | 241° |
| 2026-04-27 09:30 | 51.51555 | 7.61057 | 434 ft | 7 kts | 176° |
| 2026-04-27 09:30 | 51.51494 | 7.61017 | 425 ft | 8 kts | 212° |
| 2026-04-27 09:31 | 51.51459 | 7.61032 | 423 ft | 8 kts | 147° |
| 2026-04-27 09:31 | 51.51438 | 7.61056 | 427 ft | 0 kts | 144° |
| 2026-04-27 09:52 | 51.51438 | 7.61055 | 434 ft | 0 kts | 144° |
| 2026-04-27 09:56 | 51.51439 | 7.61055 | 434 ft | 0 kts | 144° |
| 2026-04-27 10:52 | 51.51439 | 7.61054 | 434 ft | 0 kts | 144° |
| 2026-04-27 11:03 | 51.51440 | 7.61054 | 434 ft | 0 kts | 144° |